Time;durP1;ratioP1;P1;durP2;ratioP2;P2;SDS_P1;SDS_P2;PMS_P1;PMS_P2;Temp;Humidity;BMP_temperature;BMP_pressure;BME280_temperature;BME280_humidity;BME280_pressure;Samples;Min_cycle;Max_cycle;Signal;HPM_P1;HPM_P2
2021/05/03 00:02:11;;;;;;;4.27;3.70;;;5.40;99.90;;;;;;4408835;32;20266;-62
2021/05/03 00:04:37;;;;;;;4.90;4.10;;;5.50;99.90;;;;;;4410159;32;20277;-64
2021/05/03 00:07:04;;;;;;;10.27;4.17;;;5.50;99.90;;;;;;4417624;32;20197;-62
2021/05/03 00:09:30;;;;;;;5.67;4.60;;;5.40;99.90;;;;;;4418363;32;20219;-62
2021/05/03 00:12:18;;;;;;;6.60;4.93;;;5.50;99.90;;;;;;4409883;32;20231;-63
2021/05/03 00:14:45;;;;;;;6.83;4.73;;;5.50;99.90;;;;;;4404437;32;20214;-64
2021/05/03 00:17:12;;;;;;;6.27;5.17;;;5.40;99.90;;;;;;4405663;32;20530;-63
2021/05/03 00:19:45;;;;;;;7.60;4.87;;;5.40;99.90;;;;;;4404739;32;20261;-63
2021/05/03 00:22:11;;;;;;;5.80;4.80;;;5.40;99.90;;;;;;4410738;32;20187;-63
2021/05/03 00:24:40;;;;;;;6.33;5.10;;;5.30;99.90;;;;;;4410859;32;20311;-65
2021/05/03 00:27:07;;;;;;;9.57;5.37;;;5.30;99.90;;;;;;4409490;32;20171;-61
2021/05/03 00:29:36;;;;;;;7.50;5.10;;;5.30;99.90;;;;;;4405686;32;20623;-63
2021/05/03 00:32:03;;;;;;;8.13;5.70;;;5.20;99.90;;;;;;4421607;32;20160;-61
2021/05/03 00:34:30;;;;;;;9.03;5.60;;;5.20;99.90;;;;;;4413503;32;20195;-64
2021/05/03 00:36:56;;;;;;;8.97;5.20;;;5.20;99.90;;;;;;4404694;32;20211;-63
2021/05/03 00:39:22;;;;;;;7.63;5.93;;;5.20;99.90;;;;;;4408301;32;20223;-65
2021/05/03 00:41:48;;;;;;;5.80;4.73;;;5.10;99.90;;;;;;4415661;32;20285;-61
2021/05/03 00:44:15;;;;;;;8.23;5.10;;;5.10;99.90;;;;;;4408339;32;20168;-62
2021/05/03 00:46:41;;;;;;;8.60;4.80;;;5.10;99.90;;;;;;4419734;32;20171;-62
2021/05/03 00:49:08;;;;;;;7.40;4.50;;;5.00;99.90;;;;;;4419514;32;20222;-65
2021/05/03 00:51:35;;;;;;;8.00;5.23;;;5.10;99.90;;;;;;4414618;32;20232;-64
2021/05/03 00:54:01;;;;;;;9.13;4.80;;;5.00;99.90;;;;;;4409533;32;20715;-64
2021/05/03 00:56:27;;;;;;;7.30;5.50;;;5.00;99.90;;;;;;4407967;32;20272;-60
2021/05/03 00:58:54;;;;;;;7.30;4.80;;;5.00;99.90;;;;;;4412731;32;20583;-61
2021/05/03 01:01:20;;;;;;;6.27;5.40;;;5.00;99.90;;;;;;4419604;32;20214;-63
2021/05/03 01:03:47;;;;;;;10.10;5.47;;;4.90;99.90;;;;;;4415698;32;20220;-65
2021/05/03 01:06:17;;;;;;;8.47;5.87;;;4.90;99.90;;;;;;4424173;32;20211;-63
2021/05/03 01:08:45;;;;;;;7.13;5.93;;;4.90;99.90;;;;;;4417435;32;20160;-63
2021/05/03 01:11:11;;;;;;;9.43;5.53;;;4.80;99.90;;;;;;4407000;32;20485;-63
2021/05/03 01:13:38;;;;;;;7.90;5.37;;;4.80;99.90;;;;;;4411400;32;20210;-64
2021/05/03 01:16:04;;;;;;;9.13;6.03;;;4.80;99.90;;;;;;4408373;32;20205;-61
2021/05/03 01:18:35;;;;;;;9.23;6.13;;;4.80;99.90;;;;;;4408756;32;20208;-60
2021/05/03 01:21:02;;;;;;;7.77;5.90;;;4.70;99.90;;;;;;4413045;32;20164;-60
2021/05/03 01:23:29;;;;;;;8.17;5.27;;;4.70;99.90;;;;;;4420900;32;20185;-62
2021/05/03 01:25:55;;;;;;;6.27;5.27;;;4.70;99.90;;;;;;4419278;32;20156;-61
2021/05/03 01:28:21;;;;;;;8.63;5.87;;;4.60;99.90;;;;;;4410506;32;20206;-61
2021/05/03 01:30:48;;;;;;;7.90;6.10;;;4.60;99.90;;;;;;4412781;32;20247;-62
2021/05/03 01:33:17;;;;;;;8.70;6.40;;;4.50;99.90;;;;;;4421990;32;20534;-61
2021/05/03 01:35:44;;;;;;;10.10;6.10;;;4.50;99.90;;;;;;4418454;32;20171;-62
2021/05/03 01:38:13;;;;;;;8.97;6.50;;;4.60;99.90;;;;;;4407376;32;20164;-61
2021/05/03 01:40:41;;;;;;;10.07;6.60;;;4.50;99.90;;;;;;4413981;32;20594;-64
2021/05/03 01:43:12;;;;;;;8.13;6.23;;;4.50;99.90;;;;;;4406997;32;20195;-64
2021/05/03 01:45:40;;;;;;;9.83;6.77;;;4.50;99.90;;;;;;4420008;32;20159;-61
2021/05/03 01:48:08;;;;;;;9.43;6.80;;;4.40;99.90;;;;;;4420386;32;20219;-64
2021/05/03 01:50:35;;;;;;;9.27;6.30;;;4.50;99.90;;;;;;4419683;32;20178;-63
2021/05/03 01:53:03;;;;;;;8.83;6.03;;;4.40;99.90;;;;;;4417383;32;20209;-62
2021/05/03 01:55:31;;;;;;;9.03;7.00;;;4.40;99.90;;;;;;4407879;32;20197;-61
2021/05/03 01:57:57;;;;;;;8.77;6.93;;;4.40;99.90;;;;;;4408447;32;20220;-60
2021/05/03 02:00:24;;;;;;;15.37;7.87;;;4.40;99.90;;;;;;4412348;32;20229;-60
2021/05/03 02:02:50;;;;;;;10.23;8.00;;;4.30;99.90;;;;;;4406537;32;20199;-61
2021/05/03 02:05:18;;;;;;;10.03;7.63;;;4.40;99.90;;;;;;4408628;32;20181;-63
2021/05/03 02:07:44;;;;;;;12.17;7.70;;;4.40;99.90;;;;;;4406090;32;20537;-65
2021/05/03 02:10:12;;;;;;;10.83;7.50;;;4.50;99.90;;;;;;4408816;32;20177;-62
2021/05/03 02:12:39;;;;;;;12.30;8.93;;;4.50;99.90;;;;;;4406344;32;20256;-63
2021/05/03 02:15:07;;;;;;;11.57;8.07;;;4.60;99.90;;;;;;4407592;32;20579;-62
2021/05/03 02:17:33;;;;;;;9.10;7.93;;;4.60;99.90;;;;;;4405888;32;20668;-62
2021/05/03 02:20:00;;;;;;;12.90;8.83;;;4.60;99.90;;;;;;4407081;32;20544;-63
2021/05/03 02:22:26;;;;;;;10.30;8.20;;;4.60;99.90;;;;;;4410878;32;20167;-63
2021/05/03 02:24:52;;;;;;;11.43;8.60;;;4.60;99.90;;;;;;4412992;32;20211;-61
2021/05/03 02:27:18;;;;;;;11.10;8.70;;;4.70;99.90;;;;;;4407509;32;20190;-63
2021/05/03 02:29:46;;;;;;;10.40;8.17;;;4.50;99.90;;;;;;4409241;32;20224;-64
2021/05/03 02:32:12;;;;;;;14.93;7.67;;;4.60;99.90;;;;;;4406165;32;20494;-62
2021/05/03 02:34:38;;;;;;;11.83;8.23;;;4.60;99.90;;;;;;4406598;32;20201;-62
2021/05/03 02:37:04;;;;;;;12.17;8.07;;;4.60;99.90;;;;;;4413993;32;20539;-64
2021/05/03 02:39:31;;;;;;;9.60;8.10;;;4.70;99.90;;;;;;4419283;32;20205;-63
2021/05/03 02:41:57;;;;;;;9.43;7.70;;;4.60;99.90;;;;;;4421268;32;20165;-61
2021/05/03 02:44:23;;;;;;;11.00;8.37;;;4.60;99.90;;;;;;4419220;32;20219;-62
2021/05/03 02:46:51;;;;;;;11.60;8.80;;;4.60;99.90;;;;;;4417220;32;20212;-63
2021/05/03 02:49:17;;;;;;;12.63;9.40;;;4.60;99.90;;;;;;4412359;32;20198;-64
2021/05/03 02:51:46;;;;;;;14.47;8.43;;;4.60;99.90;;;;;;4405660;32;20215;-62
2021/05/03 02:54:12;;;;;;;9.60;8.00;;;4.60;99.90;;;;;;4406083;32;20208;-63
2021/05/03 02:56:38;;;;;;;13.13;9.67;;;4.60;99.90;;;;;;4407953;32;20155;-62
2021/05/03 02:59:08;;;;;;;13.37;9.37;;;4.60;99.90;;;;;;4412072;32;20177;-66
2021/05/03 03:01:34;;;;;;;14.97;10.17;;;4.60;99.90;;;;;;4419728;32;20170;-62
2021/05/03 03:04:09;;;;;;;17.20;10.60;;;4.70;99.90;;;;;;4403566;32;20177;-64
2021/05/03 03:06:35;;;;;;;12.77;10.13;;;4.60;99.90;;;;;;4409808;32;20203;-62
2021/05/03 03:09:01;;;;;;;12.33;9.90;;;4.60;99.90;;;;;;4410043;32;20199;-63
2021/05/03 03:11:28;;;;;;;15.63;10.53;;;4.70;99.90;;;;;;4408302;32;20675;-60
2021/05/03 03:13:55;;;;;;;12.30;10.30;;;4.70;99.90;;;;;;4410431;32;20159;-63
2021/05/03 03:16:22;;;;;;;14.03;10.53;;;4.70;99.90;;;;;;4407178;32;20220;-62
2021/05/03 03:18:49;;;;;;;12.10;9.30;;;4.80;99.90;;;;;;4410239;32;20218;-62
2021/05/03 03:21:17;;;;;;;13.47;10.73;;;4.80;99.90;;;;;;4394890;32;20211;-62
2021/05/03 03:23:44;;;;;;;13.17;10.17;;;4.80;99.90;;;;;;4407994;32;20644;-61
2021/05/03 03:26:10;;;;;;;17.90;11.00;;;4.90;99.90;;;;;;4411250;32;20620;-61
2021/05/03 03:28:36;;;;;;;14.60;10.73;;;4.90;99.90;;;;;;4409737;32;20254;-60
2021/05/03 03:31:07;;;;;;;15.73;12.43;;;4.90;99.90;;;;;;4412023;32;20185;-63
2021/05/03 03:33:33;;;;;;;14.33;10.70;;;4.90;99.90;;;;;;4406540;32;20210;-66
2021/05/03 03:36:00;;;;;;;16.80;12.67;;;4.90;99.90;;;;;;4405246;32;20159;-61
2021/05/03 03:38:27;;;;;;;13.10;10.80;;;5.00;99.90;;;;;;4406357;32;20154;-63
2021/05/03 03:40:53;;;;;;;16.70;11.53;;;5.00;99.90;;;;;;4408306;32;20218;-64
2021/05/03 03:43:20;;;;;;;15.23;11.57;;;5.00;99.90;;;;;;4418088;32;20281;-64
2021/05/03 03:45:46;;;;;;;18.30;11.80;;;5.00;99.90;;;;;;4410056;32;20192;-63
2021/05/03 03:48:13;;;;;;;15.40;11.13;;;5.00;99.90;;;;;;4413584;32;20156;-61
2021/05/03 03:50:39;;;;;;;16.30;12.17;;;5.00;99.90;;;;;;4407518;32;20246;-60
2021/05/03 03:53:05;;;;;;;15.47;12.17;;;5.00;99.90;;;;;;4412535;32;20177;-61
2021/05/03 03:55:34;;;;;;;14.53;11.50;;;5.00;99.90;;;;;;4405319;32;20254;-60
2021/05/03 03:58:00;;;;;;;13.00;11.17;;;5.10;99.90;;;;;;4405296;32;20207;-61
2021/05/03 04:00:29;;;;;;;18.67;12.67;;;5.10;99.90;;;;;;4404978;32;20640;-61
2021/05/03 04:02:56;;;;;;;19.87;12.63;;;5.00;99.90;;;;;;4411131;32;20228;-63
2021/05/03 04:05:33;;;;;;;18.33;13.10;;;5.10;99.90;;;;;;4414868;32;20156;-61
2021/05/03 04:08:02;;;;;;;15.40;12.20;;;5.10;99.90;;;;;;4421271;32;20506;-61
2021/05/03 04:10:42;;;;;;;17.23;12.53;;;5.10;99.90;;;;;;4417727;32;20194;-61
2021/05/03 04:21:38;;;;;;;20.10;13.77;;;5.30;99.90;;;;;;4373506;32;20269;-60
2021/05/03 04:24:10;;;;;;;19.03;13.07;;;5.20;99.90;;;;;;4371916;32;20221;-62
2021/05/03 04:26:36;;;;;;;15.33;11.87;;;5.20;99.90;;;;;;4369876;32;20210;-61
2021/05/03 04:29:04;;;;;;;16.73;13.17;;;5.30;99.90;;;;;;4371624;32;20171;-59
2021/05/03 04:31:30;;;;;;;17.27;13.13;;;5.30;99.90;;;;;;4375542;32;20219;-65
2021/05/03 04:33:57;;;;;;;18.80;12.73;;;5.40;99.90;;;;;;4369679;32;20228;-65
2021/05/03 04:36:23;;;;;;;17.83;12.63;;;5.50;99.90;;;;;;4366993;32;20220;-60
2021/05/03 04:38:49;;;;;;;19.43;13.93;;;5.50;99.90;;;;;;4375297;32;20169;-61
2021/05/03 04:41:16;;;;;;;16.97;13.40;;;5.50;99.90;;;;;;4374102;32;20179;-61
2021/05/03 04:43:43;;;;;;;15.57;12.63;;;5.50;99.90;;;;;;4374750;32;20266;-63
2021/05/03 04:46:10;;;;;;;19.03;13.17;;;5.60;99.90;;;;;;4371511;32;20255;-62
2021/05/03 04:48:37;;;;;;;17.87;13.13;;;5.70;99.90;;;;;;4374876;32;20172;-65
2021/05/03 04:51:03;;;;;;;16.37;12.97;;;5.70;99.90;;;;;;4383848;32;20223;-62
2021/05/03 04:53:30;;;;;;;15.57;12.47;;;5.70;99.80;;;;;;4417524;32;20164;-63
2021/05/03 04:55:56;;;;;;;17.20;13.83;;;5.80;99.80;;;;;;4419203;32;20572;-63
2021/05/03 04:58:22;;;;;;;19.13;13.37;;;5.80;99.50;;;;;;4412667;32;20183;-63
2021/05/03 05:00:49;;;;;;;19.20;13.70;;;5.70;99.40;;;;;;4407893;32;20174;-61
2021/05/03 05:03:16;;;;;;;19.83;13.30;;;5.80;99.30;;;;;;4412003;32;20306;-63
2021/05/03 05:05:45;;;;;;;22.10;13.13;;;5.80;99.30;;;;;;4409149;32;20237;-64
2021/05/03 05:08:11;;;;;;;16.47;13.10;;;5.90;99.00;;;;;;4413460;32;20164;-61
2021/05/03 05:10:37;;;;;;;18.27;13.30;;;5.90;99.00;;;;;;4409089;32;20220;-62
2021/05/03 05:13:03;;;;;;;21.67;13.60;;;6.00;98.80;;;;;;4417176;32;20281;-61
2021/05/03 05:15:30;;;;;;;17.17;12.03;;;6.00;98.70;;;;;;4420450;32;20194;-64
2021/05/03 05:17:56;;;;;;;15.27;12.47;;;6.10;98.50;;;;;;4416817;32;20175;-60
2021/05/03 05:20:24;;;;;;;15.83;12.70;;;6.10;98.40;;;;;;4419927;32;20547;-63
2021/05/03 05:22:50;;;;;;;23.10;13.70;;;6.10;98.50;;;;;;4420942;32;22098;-64
2021/05/03 05:25:17;;;;;;;15.17;12.80;;;6.10;98.30;;;;;;4408152;32;20180;-63
2021/05/03 05:27:43;;;;;;;16.67;12.40;;;6.20;98.20;;;;;;4409684;32;20227;-59
2021/05/03 05:30:14;;;;;;;15.13;12.27;;;6.20;98.30;;;;;;4409113;32;20635;-63
2021/05/03 05:32:40;;;;;;;19.10;12.67;;;6.20;98.30;;;;;;4411105;32;20159;-60
2021/05/03 05:35:08;;;;;;;16.27;12.10;;;6.20;98.10;;;;;;4416395;32;20267;-60
2021/05/03 05:37:36;;;;;;;16.43;11.70;;;6.20;98.10;;;;;;4412960;32;20669;-61
2021/05/03 05:40:02;;;;;;;14.97;11.60;;;6.30;98.00;;;;;;4409841;32;20675;-64
2021/05/03 05:42:28;;;;;;;14.93;12.10;;;6.40;98.00;;;;;;4407522;32;20260;-63
2021/05/03 05:44:55;;;;;;;15.57;11.97;;;6.40;97.70;;;;;;4413613;32;20236;-62
2021/05/03 05:47:21;;;;;;;14.00;11.50;;;6.50;97.70;;;;;;4406949;32;20250;-61
2021/05/03 05:49:47;;;;;;;16.13;11.37;;;6.60;97.50;;;;;;4415853;32;20194;-63
2021/05/03 05:52:14;;;;;;;15.43;11.67;;;6.70;97.20;;;;;;4408987;32;20156;-61
2021/05/03 05:54:41;;;;;;;15.90;10.20;;;6.80;97.10;;;;;;4410836;32;20194;-60
2021/05/03 05:57:07;;;;;;;15.90;10.93;;;7.00;96.40;;;;;;4405407;32;20159;-63
2021/05/03 05:59:34;;;;;;;14.33;11.50;;;7.10;96.30;;;;;;4409205;32;20148;-60
2021/05/03 06:02:00;;;;;;;15.27;10.30;;;7.20;96.00;;;;;;4407908;32;20171;-64
2021/05/03 06:04:26;;;;;;;13.90;11.10;;;7.40;95.70;;;;;;4415756;32;20264;-64
2021/05/03 06:06:53;;;;;;;14.37;10.53;;;7.40;95.40;;;;;;4409529;32;20164;-59
2021/05/03 06:09:19;;;;;;;16.00;10.93;;;7.50;95.30;;;;;;4412613;32;20560;-61
2021/05/03 06:11:46;;;;;;;12.70;10.00;;;7.60;94.80;;;;;;4410077;32;20183;-59
2021/05/03 06:14:12;;;;;;;14.33;10.63;;;7.70;94.80;;;;;;4413107;32;20223;-63
2021/05/03 06:16:39;;;;;;;12.20;10.40;;;7.80;94.70;;;;;;4410917;32;20207;-61
2021/05/03 06:19:05;;;;;;;17.27;11.53;;;8.00;94.50;;;;;;4412046;32;20210;-63
2021/05/03 06:21:32;;;;;;;14.23;10.57;;;7.90;94.20;;;;;;4411839;32;20522;-61
2021/05/03 06:23:58;;;;;;;13.80;10.53;;;8.10;93.90;;;;;;4411435;32;20222;-59
2021/05/03 06:26:25;;;;;;;14.67;10.57;;;8.00;94.00;;;;;;4410019;32;20152;-62
2021/05/03 06:28:52;;;;;;;16.17;9.73;;;8.20;93.90;;;;;;4411054;32;20184;-63
2021/05/03 06:31:20;;;;;;;13.87;10.90;;;8.30;93.60;;;;;;4411993;32;20510;-61
2021/05/03 06:33:46;;;;;;;18.23;11.60;;;8.40;93.40;;;;;;4411477;32;20156;-61
2021/05/03 06:36:13;;;;;;;14.13;10.73;;;8.50;93.20;;;;;;4412540;32;20163;-65
2021/05/03 06:38:39;;;;;;;16.93;11.67;;;8.50;93.20;;;;;;4412396;32;20175;-62
2021/05/03 06:41:06;;;;;;;15.57;11.10;;;8.80;92.70;;;;;;4409943;32;20164;-61
2021/05/03 06:43:32;;;;;;;14.57;10.27;;;9.20;92.00;;;;;;4410247;32;20160;-64
2021/05/03 06:45:59;;;;;;;14.47;10.40;;;9.40;91.70;;;;;;4412438;32;20615;-63
2021/05/03 06:48:26;;;;;;;14.30;11.60;;;9.50;91.80;;;;;;4408603;32;20650;-60
2021/05/03 06:50:54;;;;;;;17.13;10.90;;;9.70;91.40;;;;;;4413994;32;20183;-60
2021/05/03 06:53:26;;;;;;;15.00;11.37;;;9.90;90.80;;;;;;4409645;32;20296;-59
2021/05/03 06:55:53;;;;;;;12.33;10.73;;;9.80;90.80;;;;;;4413836;32;20253;-63
2021/05/03 06:58:19;;;;;;;16.07;11.40;;;9.70;90.90;;;;;;4410930;32;20181;-60
2021/05/03 07:00:48;;;;;;;14.27;11.13;;;9.70;90.60;;;;;;4410554;32;20592;-62
2021/05/03 07:03:15;;;;;;;18.70;12.73;;;9.70;90.80;;;;;;4412124;32;20481;-64
2021/05/03 07:05:41;;;;;;;21.57;12.33;;;9.80;91.20;;;;;;4410850;32;20616;-63
2021/05/03 07:08:09;;;;;;;22.00;13.33;;;9.90;90.60;;;;;;4410835;32;20493;-63
2021/05/03 07:10:38;;;;;;;16.13;12.23;;;9.90;90.80;;;;;;4409722;32;20223;-61
2021/05/03 07:13:04;;;;;;;19.27;13.47;;;10.00;90.80;;;;;;4411226;32;20235;-61
2021/05/03 07:15:31;;;;;;;15.33;12.07;;;10.10;90.80;;;;;;4408014;32;20245;-63
2021/05/03 07:17:57;;;;;;;18.97;12.77;;;10.50;90.20;;;;;;4408828;32;20159;-61
2021/05/03 07:20:26;;;;;;;25.33;13.47;;;10.80;90.00;;;;;;4407399;32;20607;-62
2021/05/03 07:22:55;;;;;;;16.87;13.33;;;11.20;89.00;;;;;;4407822;32;20184;-64
2021/05/03 07:25:22;;;;;;;21.47;15.03;;;11.90;88.20;;;;;;4381182;32;1192169;-63
2021/05/03 07:27:48;;;;;;;27.13;16.07;;;13.10;85.00;;;;;;4442777;32;20303;-61
2021/05/03 07:30:15;;;;;;;22.17;14.57;;;15.00;78.90;;;;;;4440429;32;20155;-65
2021/05/03 07:32:42;;;;;;;21.13;16.67;;;18.60;70.30;;;;;;4441361;32;20495;-65
2021/05/03 07:35:10;;;;;;;24.63;17.73;;;22.00;58.20;;;;;;4441079;32;20186;-61
2021/05/03 07:37:38;;;;;;;26.80;19.53;;;23.70;50.00;;;;;;4441055;32;20143;-63
2021/05/03 07:40:06;;;;;;;25.03;20.93;;;23.60;48.50;;;;;;4441681;32;20169;-61
2021/05/03 07:42:33;;;;;;;25.23;20.70;;;24.00;49.40;;;;;;4441199;32;20143;-65
2021/05/03 07:44:59;;;;;;;24.53;21.70;;;26.10;46.90;;;;;;4438919;32;20494;-65
2021/05/03 07:47:27;;;;;;;30.30;25.40;;;28.40;41.30;;;;;;4445476;32;22409;-62
2021/05/03 07:49:53;;;;;;;27.37;23.43;;;25.40;42.20;;;;;;4441353;32;20518;-64
2021/05/03 07:52:20;;;;;;;29.90;24.70;;;24.80;45.80;;;;;;4448041;32;20143;-62
2021/05/03 07:54:47;;;;;;;29.93;24.63;;;27.10;43.90;;;;;;4446866;32;20147;-62
2021/05/03 07:57:13;;;;;;;28.53;24.37;;;27.80;40.10;;;;;;4439360;32;20241;-63
2021/05/03 07:59:39;;;;;;;33.77;26.53;;;26.30;44.50;;;;;;4443632;32;20202;-64
2021/05/03 08:02:06;;;;;;;32.67;26.50;;;26.40;43.20;;;;;;4438624;32;20526;-62
2021/05/03 08:04:32;;;;;;;31.07;27.73;;;26.10;42.40;;;;;;4440602;32;20173;-64
2021/05/03 08:06:59;;;;;;;29.77;26.33;;;23.50;45.90;;;;;;4443115;32;20155;-62
2021/05/03 08:09:27;;;;;;;37.50;31.47;;;22.80;50.50;;;;;;4438109;32;20571;-65
2021/05/03 08:11:55;;;;;;;35.63;29.60;;;20.70;53.50;;;;;;4439581;32;20146;-61
2021/05/03 08:14:22;;;;;;;36.93;32.57;;;18.90;60.60;;;;;;4441137;32;20165;-61
2021/05/03 08:16:53;;;;;;;44.60;33.53;;;18.30;64.00;;;;;;4441069;32;20214;-63
2021/05/03 08:19:19;;;;;;;39.07;33.23;;;18.10;65.30;;;;;;4438447;32;20302;-65
2021/05/03 08:21:46;;;;;;;37.30;30.93;;;19.40;67.00;;;;;;4442867;32;20214;-63
2021/05/03 08:24:12;;;;;;;36.47;32.50;;;22.50;56.40;;;;;;4448465;32;20171;-62
2021/05/03 08:26:40;;;;;;;36.53;29.53;;;22.60;54.50;;;;;;4434972;32;20269;-63
2021/05/03 08:29:07;;;;;;;36.17;30.63;;;24.30;52.20;;;;;;4434628;32;20152;-63
2021/05/03 08:31:33;;;;;;;38.53;32.37;;;26.10;46.40;;;;;;4438492;32;20609;-62
2021/05/03 08:34:00;;;;;;;38.33;33.43;;;25.10;44.70;;;;;;4449133;32;20549;-64
2021/05/03 08:36:26;;;;;;;37.23;33.17;;;23.40;48.40;;;;;;4442704;32;20658;-64
2021/05/03 08:38:53;;;;;;;34.90;30.50;;;22.70;50.20;;;;;;4440157;32;20603;-61
2021/05/03 08:41:19;;;;;;;39.40;33.80;;;22.50;54.00;;;;;;4441649;32;20217;-64
2021/05/03 08:43:48;;;;;;;41.77;35.43;;;23.00;51.60;;;;;;4441138;32;20158;-64
2021/05/03 08:46:26;;;;;;;42.47;35.43;;;21.50;54.30;;;;;;4440762;32;20609;-64
2021/05/03 08:48:58;;;;;;;37.10;32.47;;;22.00;55.60;;;;;;4442190;32;20151;-62
2021/05/03 08:51:31;;;;;;;44.97;33.77;;;24.10;51.00;;;;;;4444598;32;20549;-61
2021/05/03 08:54:02;;;;;;;43.07;32.43;;;25.10;47.60;;;;;;4445174;32;20147;-64
2021/05/03 08:56:28;;;;;;;40.80;33.47;;;25.20;45.40;;;;;;4450872;32;20166;-63
2021/05/03 08:58:54;;;;;;;37.43;32.80;;;24.60;46.70;;;;;;4450984;32;20157;-61
2021/05/03 09:01:23;;;;;;;36.87;32.03;;;23.10;49.30;;;;;;4449661;32;20616;-62
2021/05/03 09:03:52;;;;;;;36.07;30.70;;;22.10;51.60;;;;;;4449220;32;20166;-62
2021/05/03 09:06:18;;;;;;;37.63;32.67;;;21.40;54.20;;;;;;4451687;32;20214;-64
2021/05/03 09:08:45;;;;;;;38.27;32.63;;;19.50;59.00;;;;;;4450118;32;20187;-63
2021/05/03 09:11:15;;;;;;;37.90;33.57;;;18.50;63.80;;;;;;4451889;32;20464;-60
2021/05/03 09:13:42;;;;;;;38.43;33.17;;;16.90;69.00;;;;;;4437446;32;20147;-66
2021/05/03 09:16:15;;;;;;;40.10;33.53;;;15.90;72.50;;;;;;4436744;32;20201;-62
2021/05/03 09:18:43;;;;;;;39.97;33.27;;;14.90;76.70;;;;;;4438144;32;20192;-63
2021/05/03 09:21:21;;;;;;;38.80;31.47;;;15.00;75.80;;;;;;4437845;32;20147;-62
2021/05/03 09:24:09;;;;;;;37.07;31.93;;;16.20;74.40;;;;;;4444847;32;20209;-64
2021/05/03 09:26:39;;;;;;;41.80;34.83;;;16.30;73.20;;;;;;4437568;32;20194;-63
2021/05/03 09:29:31;;;;;;;39.33;32.10;;;15.80;74.20;;;;;;4438045;32;20136;-64
2021/05/03 09:32:06;;;;;;;37.63;30.47;;;15.80;74.10;;;;;;4439169;32;20507;-62
2021/05/03 09:34:35;;;;;;;39.33;32.30;;;16.10;74.20;;;;;;4451159;32;20199;-63
2021/05/03 09:37:24;;;;;;;37.03;32.00;;;16.20;73.20;;;;;;4452864;32;20133;-63
2021/05/03 09:39:55;;;;;;;39.10;32.10;;;16.00;73.90;;;;;;4452961;32;20150;-65
2021/05/03 09:42:22;;;;;;;37.20;30.80;;;16.10;73.30;;;;;;4451260;32;20251;-64
2021/05/03 09:45:08;;;;;;;35.10;30.70;;;16.60;72.50;;;;;;4438476;32;20188;-63
2021/05/03 09:47:35;;;;;;;37.37;31.37;;;16.60;71.60;;;;;;4437289;32;20154;-65
2021/05/03 09:50:06;;;;;;;37.87;31.33;;;16.50;71.60;;;;;;4437388;32;20139;-61
2021/05/03 09:52:32;;;;;;;31.87;26.87;;;16.70;72.00;;;;;;4439102;32;20143;-65
2021/05/03 09:54:58;;;;;;;31.43;28.03;;;17.00;69.60;;;;;;4450853;32;20481;-63
2021/05/03 09:57:25;;;;;;;32.60;26.13;;;17.10;69.90;;;;;;4452308;32;20537;-64
2021/05/03 09:59:53;;;;;;;32.63;27.97;;;16.70;69.70;;;;;;4451500;32;20135;-67
2021/05/03 10:02:22;;;;;;;34.20;26.33;;;16.20;69.60;;;;;;4450559;32;20204;-65
2021/05/03 10:04:59;;;;;;;34.37;26.73;;;16.30;70.90;;;;;;4452515;32;20173;-64
2021/05/03 10:07:29;;;;;;;33.13;26.03;;;16.50;69.90;;;;;;4453999;32;20138;-63
2021/05/03 10:10:03;;;;;;;31.53;27.20;;;16.80;68.70;;;;;;4452490;32;20144;-61
2021/05/03 10:12:31;;;;;;;31.90;27.37;;;16.70;68.70;;;;;;4438758;32;20143;-61
2021/05/03 10:14:59;;;;;;;33.67;27.63;;;16.60;68.50;;;;;;4437265;32;20218;-63
2021/05/03 10:17:27;;;;;;;31.73;25.87;;;17.10;68.60;;;;;;4436897;32;20173;-63
2021/05/03 10:19:57;;;;;;;29.83;24.17;;;17.00;67.70;;;;;;4443196;32;20440;-63
2021/05/03 10:22:24;;;;;;;27.70;22.27;;;16.60;68.60;;;;;;4449887;32;20200;-62
2021/05/03 10:24:55;;;;;;;29.87;22.97;;;16.80;68.60;;;;;;4452154;32;20228;-65
2021/05/03 10:27:23;;;;;;;25.50;22.43;;;16.30;67.10;;;;;;4451643;32;20206;-66
2021/05/03 10:30:04;;;;;;;26.97;22.80;;;16.30;68.50;;;;;;4452628;32;20155;-65
2021/05/03 10:32:31;;;;;;;27.30;23.23;;;16.60;69.00;;;;;;4450590;32;20232;-66
2021/05/03 10:34:59;;;;;;;25.37;21.93;;;16.10;68.40;;;;;;4451905;32;20186;-62
2021/05/03 10:37:51;;;;;;;23.70;19.90;;;16.20;67.80;;;;;;4452997;32;20159;-63
2021/05/03 10:41:22;;;;;;;24.43;20.67;;;16.60;67.80;;;;;;4451828;32;20155;-65
2021/05/03 10:43:50;;;;;;;26.23;21.20;;;16.60;67.30;;;;;;4388582;32;20153;-62
2021/05/03 10:49:31;;;;;;;25.30;19.53;;;16.40;67.30;;;;;;4389371;32;20155;-62
2021/05/03 10:52:00;;;;;;;25.77;20.10;;;16.90;66.70;;;;;;4388002;32;20151;-62
2021/05/03 10:54:40;;;;;;;21.80;19.20;;;16.80;65.60;;;;;;4388489;32;20188;-63
2021/05/03 10:57:08;;;;;;;20.80;18.47;;;16.20;67.30;;;;;;4388638;32;20148;-62
2021/05/03 10:59:47;;;;;;;21.23;18.53;;;16.40;67.20;;;;;;4388953;32;20144;-62
2021/05/03 11:02:15;;;;;;;20.87;17.93;;;16.70;66.00;;;;;;4387856;32;20656;-62
2021/05/03 11:05:10;;;;;;;22.53;18.47;;;16.20;65.60;;;;;;4388059;32;20210;-62
2021/05/03 11:07:36;;;;;;;17.27;15.47;;;16.00;66.90;;;;;;4388463;32;20509;-63
2021/05/03 11:10:04;;;;;;;19.27;14.73;;;16.20;67.00;;;;;;4389269;32;20641;-64
2021/05/03 11:12:33;;;;;;;17.73;14.53;;;16.40;63.90;;;;;;4387586;32;20152;-60
2021/05/03 11:15:24;;;;;;;21.67;16.90;;;16.30;63.20;;;;;;4388630;32;20152;-65
2021/05/03 11:18:21;;;;;;;17.37;14.67;;;16.20;65.40;;;;;;4388245;32;20499;-65
2021/05/03 11:21:12;;;;;;;19.33;14.23;;;16.10;65.10;;;;;;4424761;32;20472;-64
2021/05/03 11:23:39;;;;;;;19.80;14.63;;;15.80;65.40;;;;;;4447406;32;20163;-64
2021/05/03 11:26:22;;;;;;;20.53;15.73;;;16.00;66.00;;;;;;4451556;32;20195;-62
2021/05/03 11:28:49;;;;;;;18.70;15.73;;;16.10;65.10;;;;;;4451624;32;20186;-65
2021/05/03 11:31:19;;;;;;;19.80;15.80;;;16.30;66.20;;;;;;4451575;32;20547;-65
2021/05/03 11:33:51;;;;;;;17.87;15.27;;;16.40;64.60;;;;;;4446385;32;20340;-62
2021/05/03 11:36:21;;;;;;;20.40;15.33;;;16.20;64.70;;;;;;4448867;32;20143;-63
2021/05/03 11:38:54;;;;;;;18.53;16.00;;;16.20;65.00;;;;;;4452381;32;20139;-62
2021/05/03 11:41:44;;;;;;;20.17;18.03;;;16.00;65.80;;;;;;4452863;32;20134;-63
2021/05/03 11:44:17;;;;;;;23.80;18.13;;;15.70;67.40;;;;;;4448110;32;20160;-65
2021/05/03 11:46:45;;;;;;;18.67;16.67;;;15.90;68.00;;;;;;4443835;32;20181;-64
2021/05/03 11:49:17;;;;;;;15.70;14.07;;;16.30;66.30;;;;;;4439799;32;20248;-64
2021/05/03 11:51:48;;;;;;;18.13;16.07;;;16.70;63.60;;;;;;4439113;32;20163;-61
2021/05/03 11:54:29;;;;;;;21.03;16.73;;;16.50;64.60;;;;;;4438804;32;20146;-64
2021/05/03 11:56:58;;;;;;;19.63;17.00;;;16.40;63.80;;;;;;4436975;32;20158;-64
2021/05/03 11:59:24;;;;;;;18.90;16.87;;;16.00;64.10;;;;;;4438556;32;20139;-64
2021/05/03 12:01:59;;;;;;;22.83;18.83;;;16.10;66.40;;;;;;4442131;32;20159;-64
2021/05/03 12:04:37;;;;;;;21.33;19.00;;;16.30;66.20;;;;;;4436425;32;20289;-63
2021/05/03 12:07:12;;;;;;;26.53;20.70;;;16.30;66.60;;;;;;4436691;32;20491;-65
2021/05/03 12:09:38;;;;;;;20.87;18.67;;;16.40;66.40;;;;;;4436151;32;20154;-65
2021/05/03 12:12:05;;;;;;;22.80;20.40;;;16.40;66.00;;;;;;4435729;32;20214;-65
2021/05/03 12:14:43;;;;;;;21.63;19.43;;;16.20;66.50;;;;;;4437281;32;20177;-63
2021/05/03 12:17:22;;;;;;;21.47;18.50;;;16.10;67.30;;;;;;4435609;32;20165;-61
2021/05/03 12:19:51;;;;;;;23.03;19.70;;;16.60;66.80;;;;;;4440243;32;20621;-62
2021/05/03 12:22:17;;;;;;;22.20;19.80;;;16.50;64.90;;;;;;4451494;32;20592;-62
2021/05/03 12:24:45;;;;;;;20.80;18.57;;;16.50;65.90;;;;;;4442247;32;20152;-63
2021/05/03 12:27:11;;;;;;;22.97;18.70;;;16.10;64.50;;;;;;4435892;32;20151;-63
2021/05/03 12:29:40;;;;;;;21.33;17.97;;;16.10;64.40;;;;;;4435129;32;20587;-65
2021/05/03 12:32:15;;;;;;;18.10;16.20;;;16.00;65.60;;;;;;4435538;32;20142;-63
2021/05/03 12:34:49;;;;;;;20.20;16.07;;;16.10;63.50;;;;;;4436922;32;20155;-65
2021/05/03 12:37:19;;;;;;;15.10;13.63;;;16.40;62.20;;;;;;4435095;32;20135;-63
2021/05/03 12:40:12;;;;;;;13.40;10.83;;;16.50;61.50;;;;;;4436797;32;20139;-64
2021/05/03 12:42:41;;;;;;;10.33;8.97;;;16.60;58.80;;;;;;4435206;32;20184;-66
2021/05/03 12:48:23;;;;;;;11.20;10.10;;;16.50;58.00;;;;;;4450707;32;20147;-64
2021/05/03 12:54:02;;;;;;;14.53;11.57;;;16.00;59.10;;;;;;4391770;32;20144;-63
2021/05/03 12:56:36;;;;;;;15.37;12.80;;;16.00;59.50;;;;;;4390871;32;20184;-66
2021/05/03 12:59:10;;;;;;;14.13;12.60;;;16.10;60.60;;;;;;4390209;32;20155;-61
2021/05/03 13:01:45;;;;;;;16.47;13.57;;;16.50;59.60;;;;;;4389260;32;20159;-63
2021/05/03 13:04:47;;;;;;;15.53;13.93;;;16.50;58.40;;;;;;4389780;32;20182;-65